sensor_id;sensor_type;location;lat;lon;timestamp;P1;durP1;ratioP1;P2;durP2;ratioP2
7263;SDS011;3673;52.480;13.348;2023-07-02T00:01:54;2.00;;;1.15;;
7263;SDS011;3673;52.480;13.348;2023-07-02T00:04:21;1.70;;;1.40;;
7263;SDS011;3673;52.480;13.348;2023-07-02T00:06:48;3.35;;;1.42;;
7263;SDS011;3673;52.480;13.348;2023-07-02T00:09:16;1.75;;;1.65;;
7263;SDS011;3673;52.480;13.348;2023-07-02T00:11:44;1.67;;;1.58;;
7263;SDS011;3673;52.480;13.348;2023-07-02T00:14:12;2.05;;;1.63;;
7263;SDS011;3673;52.480;13.348;2023-07-02T00:16:42;2.30;;;1.60;;
7263;SDS011;3673;52.480;13.348;2023-07-02T00:19:11;3.10;;;1.55;;
7263;SDS011;3673;52.480;13.348;2023-07-02T00:21:38;3.17;;;2.00;;
7263;SDS011;3673;52.480;13.348;2023-07-02T00:24:05;2.17;;;1.50;;
7263;SDS011;3673;52.480;13.348;2023-07-02T00:26:36;2.20;;;2.00;;
7263;SDS011;3673;52.480;13.348;2023-07-02T00:29:05;3.03;;;1.67;;
7263;SDS011;3673;52.480;13.348;2023-07-02T00:31:33;2.30;;;2.08;;
7263;SDS011;3673;52.480;13.348;2023-07-02T00:34:00;2.72;;;2.20;;
7263;SDS011;3673;52.480;13.348;2023-07-02T00:36:27;3.92;;;2.20;;
7263;SDS011;3673;52.480;13.348;2023-07-02T00:38:54;2.28;;;1.80;;
7263;SDS011;3673;52.480;13.348;2023-07-02T00:41:21;2.03;;;1.92;;
7263;SDS011;3673;52.480;13.348;2023-07-02T00:43:50;3.42;;;2.20;;
7263;SDS011;3673;52.480;13.348;2023-07-02T00:46:19;2.47;;;2.15;;
7263;SDS011;3673;52.480;13.348;2023-07-02T00:48:50;3.83;;;2.10;;
7263;SDS011;3673;52.480;13.348;2023-07-02T00:51:19;3.80;;;2.20;;
7263;SDS011;3673;52.480;13.348;2023-07-02T00:53:47;7.40;;;2.53;;
7263;SDS011;3673;52.480;13.348;2023-07-02T00:56:17;4.03;;;2.40;;
7263;SDS011;3673;52.480;13.348;2023-07-02T00:58:45;3.38;;;2.97;;
7263;SDS011;3673;52.480;13.348;2023-07-02T01:01:17;5.32;;;3.25;;
7263;SDS011;3673;52.480;13.348;2023-07-02T01:03:51;2.67;;;2.47;;
7263;SDS011;3673;52.480;13.348;2023-07-02T01:06:22;3.05;;;2.80;;
7263;SDS011;3673;52.480;13.348;2023-07-02T01:08:51;3.97;;;2.92;;
7263;SDS011;3673;52.480;13.348;2023-07-02T01:11:21;3.10;;;2.88;;
7263;SDS011;3673;52.480;13.348;2023-07-02T01:13:52;6.18;;;3.10;;
7263;SDS011;3673;52.480;13.348;2023-07-02T01:16:26;3.40;;;3.10;;
7263;SDS011;3673;52.480;13.348;2023-07-02T01:18:56;5.03;;;3.00;;
7263;SDS011;3673;52.480;13.348;2023-07-02T01:21:24;3.78;;;3.47;;
7263;SDS011;3673;52.480;13.348;2023-07-02T01:23:52;5.15;;;3.42;;
7263;SDS011;3673;52.480;13.348;2023-07-02T01:26:19;7.28;;;3.50;;
7263;SDS011;3673;52.480;13.348;2023-07-02T01:28:46;3.80;;;3.28;;
7263;SDS011;3673;52.480;13.348;2023-07-02T01:31:13;3.50;;;3.20;;
7263;SDS011;3673;52.480;13.348;2023-07-02T01:33:40;4.50;;;2.97;;
7263;SDS011;3673;52.480;13.348;2023-07-02T01:36:07;4.50;;;4.10;;
7263;SDS011;3673;52.480;13.348;2023-07-02T01:38:35;7.65;;;4.88;;
7263;SDS011;3673;52.480;13.348;2023-07-02T01:41:02;6.75;;;3.83;;
7263;SDS011;3673;52.480;13.348;2023-07-02T01:43:28;4.53;;;4.10;;
7263;SDS011;3673;52.480;13.348;2023-07-02T01:45:56;6.13;;;4.07;;
7263;SDS011;3673;52.480;13.348;2023-07-02T01:48:24;4.45;;;3.78;;
7263;SDS011;3673;52.480;13.348;2023-07-02T01:50:51;5.22;;;4.57;;
7263;SDS011;3673;52.480;13.348;2023-07-02T01:53:18;8.45;;;5.18;;
7263;SDS011;3673;52.480;13.348;2023-07-02T01:55:46;6.95;;;4.55;;
7263;SDS011;3673;52.480;13.348;2023-07-02T01:58:12;5.35;;;4.85;;
7263;SDS011;3673;52.480;13.348;2023-07-02T02:00:39;14.68;;;5.90;;
7263;SDS011;3673;52.480;13.348;2023-07-02T02:03:06;6.22;;;4.88;;
7263;SDS011;3673;52.480;13.348;2023-07-02T02:05:33;5.78;;;5.18;;
7263;SDS011;3673;52.480;13.348;2023-07-02T02:08:00;6.05;;;5.32;;
7263;SDS011;3673;52.480;13.348;2023-07-02T02:10:27;7.05;;;4.63;;
7263;SDS011;3673;52.480;13.348;2023-07-02T02:12:55;5.05;;;4.57;;
7263;SDS011;3673;52.480;13.348;2023-07-02T02:15:21;5.28;;;4.40;;
7263;SDS011;3673;52.480;13.348;2023-07-02T02:17:48;4.55;;;4.10;;
7263;SDS011;3673;52.480;13.348;2023-07-02T02:20:15;5.97;;;4.43;;
7263;SDS011;3673;52.480;13.348;2023-07-02T02:22:42;4.55;;;4.13;;
7263;SDS011;3673;52.480;13.348;2023-07-02T02:25:09;6.20;;;4.40;;
7263;SDS011;3673;52.480;13.348;2023-07-02T02:27:36;7.22;;;4.40;;
7263;SDS011;3673;52.480;13.348;2023-07-02T02:30:05;5.03;;;3.95;;
7263;SDS011;3673;52.480;13.348;2023-07-02T02:32:33;3.75;;;3.45;;
7263;SDS011;3673;52.480;13.348;2023-07-02T02:35:00;4.70;;;3.95;;
7263;SDS011;3673;52.480;13.348;2023-07-02T02:37:27;5.30;;;3.67;;
7263;SDS011;3673;52.480;13.348;2023-07-02T02:39:55;4.05;;;3.72;;
7263;SDS011;3673;52.480;13.348;2023-07-02T02:42:22;4.45;;;4.05;;
7263;SDS011;3673;52.480;13.348;2023-07-02T02:44:51;7.13;;;4.45;;
7263;SDS011;3673;52.480;13.348;2023-07-02T02:47:19;4.18;;;3.80;;
7263;SDS011;3673;52.480;13.348;2023-07-02T02:49:45;3.95;;;3.53;;
7263;SDS011;3673;52.480;13.348;2023-07-02T02:52:12;4.65;;;3.65;;
7263;SDS011;3673;52.480;13.348;2023-07-02T02:54:39;5.32;;;3.55;;
7263;SDS011;3673;52.480;13.348;2023-07-02T02:57:06;4.45;;;3.65;;
7263;SDS011;3673;52.480;13.348;2023-07-02T02:59:32;4.18;;;3.50;;
7263;SDS011;3673;52.480;13.348;2023-07-02T03:01:59;5.93;;;3.92;;
7263;SDS011;3673;52.480;13.348;2023-07-02T03:04:27;6.75;;;4.20;;
7263;SDS011;3673;52.480;13.348;2023-07-02T03:06:54;5.88;;;3.92;;
7263;SDS011;3673;52.480;13.348;2023-07-02T03:09:21;6.55;;;3.90;;
7263;SDS011;3673;52.480;13.348;2023-07-02T03:11:48;4.05;;;3.65;;
7263;SDS011;3673;52.480;13.348;2023-07-02T03:14:15;4.32;;;3.38;;
7263;SDS011;3673;52.480;13.348;2023-07-02T03:16:42;4.43;;;3.40;;
7263;SDS011;3673;52.480;13.348;2023-07-02T03:19:10;9.70;;;3.58;;
7263;SDS011;3673;52.480;13.348;2023-07-02T03:21:41;4.57;;;3.30;;
7263;SDS011;3673;52.480;13.348;2023-07-02T03:24:08;5.18;;;3.65;;
7263;SDS011;3673;52.480;13.348;2023-07-02T03:26:36;4.32;;;3.58;;
7263;SDS011;3673;52.480;13.348;2023-07-02T03:29:03;3.88;;;3.45;;
7263;SDS011;3673;52.480;13.348;2023-07-02T03:31:30;5.15;;;3.53;;
7263;SDS011;3673;52.480;13.348;2023-07-02T03:33:56;4.25;;;3.25;;
7263;SDS011;3673;52.480;13.348;2023-07-02T03:36:23;5.88;;;3.92;;
7263;SDS011;3673;52.480;13.348;2023-07-02T03:38:51;4.20;;;3.28;;
7263;SDS011;3673;52.480;13.348;2023-07-02T03:41:18;6.35;;;3.72;;
7263;SDS011;3673;52.480;13.348;2023-07-02T03:43:45;5.82;;;3.05;;
7263;SDS011;3673;52.480;13.348;2023-07-02T03:46:12;3.92;;;3.08;;
7263;SDS011;3673;52.480;13.348;2023-07-02T03:48:40;3.67;;;2.78;;
7263;SDS011;3673;52.480;13.348;2023-07-02T03:51:07;3.25;;;2.95;;
7263;SDS011;3673;52.480;13.348;2023-07-02T03:53:33;3.92;;;2.60;;
7263;SDS011;3673;52.480;13.348;2023-07-02T03:56:01;4.93;;;3.25;;
7263;SDS011;3673;52.480;13.348;2023-07-02T03:58:28;3.08;;;2.75;;
7263;SDS011;3673;52.480;13.348;2023-07-02T04:00:55;5.50;;;2.90;;
7263;SDS011;3673;52.480;13.348;2023-07-02T04:03:22;3.65;;;2.78;;
7263;SDS011;3673;52.480;13.348;2023-07-02T04:05:49;5.05;;;2.70;;
7263;SDS011;3673;52.480;13.348;2023-07-02T04:08:15;3.85;;;2.88;;
7263;SDS011;3673;52.480;13.348;2023-07-02T04:10:43;4.72;;;2.75;;
7263;SDS011;3673;52.480;13.348;2023-07-02T04:13:11;3.30;;;3.00;;
7263;SDS011;3673;52.480;13.348;2023-07-02T04:15:37;4.40;;;2.90;;
7263;SDS011;3673;52.480;13.348;2023-07-02T04:18:04;3.72;;;2.80;;
7263;SDS011;3673;52.480;13.348;2023-07-02T04:20:31;3.08;;;2.45;;
7263;SDS011;3673;52.480;13.348;2023-07-02T04:22:58;5.60;;;3.03;;
7263;SDS011;3673;52.480;13.348;2023-07-02T04:25:25;5.93;;;2.60;;
7263;SDS011;3673;52.480;13.348;2023-07-02T04:27:51;4.95;;;2.95;;
7263;SDS011;3673;52.480;13.348;2023-07-02T04:30:22;5.75;;;2.95;;
7263;SDS011;3673;52.480;13.348;2023-07-02T04:32:50;3.42;;;3.00;;
7263;SDS011;3673;52.480;13.348;2023-07-02T04:35:17;5.68;;;2.75;;
7263;SDS011;3673;52.480;13.348;2023-07-02T04:37:44;4.97;;;2.88;;
7263;SDS011;3673;52.480;13.348;2023-07-02T04:40:11;4.88;;;2.53;;
7263;SDS011;3673;52.480;13.348;2023-07-02T04:42:39;3.55;;;2.97;;
7263;SDS011;3673;52.480;13.348;2023-07-02T04:45:12;4.13;;;2.50;;
7263;SDS011;3673;52.480;13.348;2023-07-02T04:47:41;2.80;;;2.30;;
7263;SDS011;3673;52.480;13.348;2023-07-02T04:50:08;3.83;;;2.80;;
7263;SDS011;3673;52.480;13.348;2023-07-02T04:52:36;4.28;;;2.53;;
7263;SDS011;3673;52.480;13.348;2023-07-02T04:55:04;6.10;;;3.70;;
7263;SDS011;3673;52.480;13.348;2023-07-02T04:57:32;3.20;;;2.70;;
7263;SDS011;3673;52.480;13.348;2023-07-02T04:59:59;5.75;;;2.65;;
7263;SDS011;3673;52.480;13.348;2023-07-02T05:02:26;3.85;;;3.03;;
7263;SDS011;3673;52.480;13.348;2023-07-02T05:04:54;2.63;;;2.42;;
7263;SDS011;3673;52.480;13.348;2023-07-02T05:07:21;5.47;;;2.92;;
7263;SDS011;3673;52.480;13.348;2023-07-02T05:09:48;3.72;;;2.78;;
7263;SDS011;3673;52.480;13.348;2023-07-02T05:12:16;5.13;;;2.47;;
7263;SDS011;3673;52.480;13.348;2023-07-02T05:14:43;5.28;;;2.38;;
7263;SDS011;3673;52.480;13.348;2023-07-02T05:17:11;3.17;;;2.88;;
7263;SDS011;3673;52.480;13.348;2023-07-02T05:19:39;5.63;;;2.50;;
7263;SDS011;3673;52.480;13.348;2023-07-02T05:22:08;4.00;;;2.38;;
7263;SDS011;3673;52.480;13.348;2023-07-02T05:24:35;4.65;;;3.03;;
7263;SDS011;3673;52.480;13.348;2023-07-02T05:27:02;3.97;;;2.70;;
7263;SDS011;3673;52.480;13.348;2023-07-02T05:29:30;3.40;;;2.78;;
7263;SDS011;3673;52.480;13.348;2023-07-02T05:31:57;6.38;;;2.63;;
7263;SDS011;3673;52.480;13.348;2023-07-02T05:34:24;5.57;;;2.58;;
7263;SDS011;3673;52.480;13.348;2023-07-02T05:36:50;4.30;;;2.65;;
7263;SDS011;3673;52.480;13.348;2023-07-02T05:39:19;3.78;;;2.65;;
7263;SDS011;3673;52.480;13.348;2023-07-02T05:41:46;7.22;;;3.45;;
7263;SDS011;3673;52.480;13.348;2023-07-02T05:44:13;5.53;;;2.55;;
7263;SDS011;3673;52.480;13.348;2023-07-02T05:46:40;3.63;;;2.67;;
7263;SDS011;3673;52.480;13.348;2023-07-02T05:49:07;6.72;;;3.00;;
7263;SDS011;3673;52.480;13.348;2023-07-02T05:51:34;7.20;;;2.92;;
7263;SDS011;3673;52.480;13.348;2023-07-02T05:54:00;6.10;;;3.42;;
7263;SDS011;3673;52.480;13.348;2023-07-02T05:56:28;7.35;;;2.75;;
7263;SDS011;3673;52.480;13.348;2023-07-02T05:58:55;5.07;;;2.55;;
7263;SDS011;3673;52.480;13.348;2023-07-02T06:01:22;6.25;;;2.65;;
7263;SDS011;3673;52.480;13.348;2023-07-02T06:03:49;3.92;;;2.90;;
7263;SDS011;3673;52.480;13.348;2023-07-02T06:06:16;3.95;;;2.60;;
7263;SDS011;3673;52.480;13.348;2023-07-02T06:08:43;6.78;;;2.72;;
7263;SDS011;3673;52.480;13.348;2023-07-02T06:11:10;4.13;;;2.60;;
7263;SDS011;3673;52.480;13.348;2023-07-02T06:13:38;3.92;;;2.40;;
7263;SDS011;3673;52.480;13.348;2023-07-02T06:16:05;5.50;;;2.60;;
7263;SDS011;3673;52.480;13.348;2023-07-02T06:18:32;3.55;;;2.10;;
7263;SDS011;3673;52.480;13.348;2023-07-02T06:20:59;4.15;;;2.65;;
7263;SDS011;3673;52.480;13.348;2023-07-02T06:23:25;6.57;;;2.58;;
7263;SDS011;3673;52.480;13.348;2023-07-02T06:25:52;4.72;;;2.53;;
7263;SDS011;3673;52.480;13.348;2023-07-02T06:28:24;6.18;;;2.97;;
7263;SDS011;3673;52.480;13.348;2023-07-02T06:30:52;5.82;;;2.78;;
7263;SDS011;3673;52.480;13.348;2023-07-02T06:33:19;5.60;;;2.80;;
7263;SDS011;3673;52.480;13.348;2023-07-02T06:35:46;4.35;;;2.08;;
7263;SDS011;3673;52.480;13.348;2023-07-02T06:38:12;3.72;;;2.28;;
7263;SDS011;3673;52.480;13.348;2023-07-02T06:40:39;3.13;;;2.15;;
7263;SDS011;3673;52.480;13.348;2023-07-02T06:43:06;6.30;;;2.47;;
7263;SDS011;3673;52.480;13.348;2023-07-02T06:45:33;4.88;;;2.88;;
7263;SDS011;3673;52.480;13.348;2023-07-02T06:48:02;6.03;;;2.58;;
7263;SDS011;3673;52.480;13.348;2023-07-02T06:50:29;7.03;;;2.40;;
7263;SDS011;3673;52.480;13.348;2023-07-02T06:52:55;5.47;;;2.65;;
7263;SDS011;3673;52.480;13.348;2023-07-02T06:55:22;5.05;;;2.70;;
7263;SDS011;3673;52.480;13.348;2023-07-02T06:57:49;4.70;;;2.53;;
7263;SDS011;3673;52.480;13.348;2023-07-02T07:00:16;3.40;;;2.15;;
7263;SDS011;3673;52.480;13.348;2023-07-02T07:02:43;3.05;;;2.45;;
7263;SDS011;3673;52.480;13.348;2023-07-02T07:05:11;6.30;;;2.70;;
7263;SDS011;3673;52.480;13.348;2023-07-02T07:07:38;3.17;;;2.20;;
7263;SDS011;3673;52.480;13.348;2023-07-02T07:10:05;14.35;;;2.70;;
7263;SDS011;3673;52.480;13.348;2023-07-02T07:12:33;5.05;;;2.72;;
7263;SDS011;3673;52.480;13.348;2023-07-02T07:15:01;4.28;;;3.08;;
7263;SDS011;3673;52.480;13.348;2023-07-02T07:17:28;6.68;;;3.00;;
7263;SDS011;3673;52.480;13.348;2023-07-02T07:19:55;5.40;;;2.78;;
7263;SDS011;3673;52.480;13.348;2023-07-02T07:22:23;4.15;;;2.80;;
7263;SDS011;3673;52.480;13.348;2023-07-02T07:24:50;3.88;;;2.80;;
7263;SDS011;3673;52.480;13.348;2023-07-02T07:27:16;6.72;;;3.10;;
7263;SDS011;3673;52.480;13.348;2023-07-02T07:29:43;8.43;;;2.75;;
7263;SDS011;3673;52.480;13.348;2023-07-02T07:32:10;5.15;;;2.80;;
7263;SDS011;3673;52.480;13.348;2023-07-02T07:34:37;8.20;;;2.80;;
7263;SDS011;3673;52.480;13.348;2023-07-02T07:37:04;5.75;;;3.20;;
7263;SDS011;3673;52.480;13.348;2023-07-02T07:39:33;5.88;;;2.85;;
7263;SDS011;3673;52.480;13.348;2023-07-02T07:42:00;2.72;;;2.03;;
7263;SDS011;3673;52.480;13.348;2023-07-02T07:44:26;6.20;;;2.80;;
7263;SDS011;3673;52.480;13.348;2023-07-02T07:46:54;5.05;;;2.40;;
7263;SDS011;3673;52.480;13.348;2023-07-02T07:49:21;8.45;;;4.85;;
7263;SDS011;3673;52.480;13.348;2023-07-02T07:51:48;4.80;;;3.47;;
7263;SDS011;3673;52.480;13.348;2023-07-02T07:54:15;4.40;;;3.00;;
7263;SDS011;3673;52.480;13.348;2023-07-02T07:56:43;3.92;;;2.80;;
7263;SDS011;3673;52.480;13.348;2023-07-02T07:59:10;7.47;;;2.45;;
7263;SDS011;3673;52.480;13.348;2023-07-02T08:01:38;4.35;;;2.67;;
7263;SDS011;3673;52.480;13.348;2023-07-02T08:04:05;5.50;;;2.45;;
7263;SDS011;3673;52.480;13.348;2023-07-02T08:06:31;3.75;;;3.10;;
7263;SDS011;3673;52.480;13.348;2023-07-02T08:08:58;4.32;;;2.75;;
7263;SDS011;3673;52.480;13.348;2023-07-02T08:11:25;4.72;;;2.72;;
7263;SDS011;3673;52.480;13.348;2023-07-02T08:13:53;4.72;;;2.80;;
7263;SDS011;3673;52.480;13.348;2023-07-02T08:16:20;5.10;;;2.75;;
7263;SDS011;3673;52.480;13.348;2023-07-02T08:18:47;5.50;;;2.70;;
7263;SDS011;3673;52.480;13.348;2023-07-02T08:21:14;3.60;;;2.97;;
7263;SDS011;3673;52.480;13.348;2023-07-02T08:23:42;6.18;;;2.78;;
7263;SDS011;3673;52.480;13.348;2023-07-02T08:26:09;4.97;;;2.88;;
7263;SDS011;3673;52.480;13.348;2023-07-02T08:28:36;4.00;;;3.08;;
7263;SDS011;3673;52.480;13.348;2023-07-02T08:31:06;5.22;;;3.20;;
7263;SDS011;3673;52.480;13.348;2023-07-02T08:33:32;6.60;;;3.65;;
7263;SDS011;3673;52.480;13.348;2023-07-02T08:35:59;5.88;;;3.40;;
7263;SDS011;3673;52.480;13.348;2023-07-02T08:38:26;5.28;;;3.25;;
7263;SDS011;3673;52.480;13.348;2023-07-02T08:40:53;6.40;;;3.03;;
7263;SDS011;3673;52.480;13.348;2023-07-02T08:43:20;5.00;;;3.72;;
7263;SDS011;3673;52.480;13.348;2023-07-02T08:45:49;10.75;;;4.05;;
7263;SDS011;3673;52.480;13.348;2023-07-02T08:48:19;6.63;;;3.15;;
7263;SDS011;3673;52.480;13.348;2023-07-02T08:50:47;7.60;;;3.40;;
7263;SDS011;3673;52.480;13.348;2023-07-02T08:53:14;7.53;;;3.70;;
7263;SDS011;3673;52.480;13.348;2023-07-02T08:55:41;5.88;;;3.65;;
7263;SDS011;3673;52.480;13.348;2023-07-02T08:58:08;4.90;;;3.50;;
7263;SDS011;3673;52.480;13.348;2023-07-02T09:00:35;4.85;;;3.50;;
7263;SDS011;3673;52.480;13.348;2023-07-02T09:03:10;6.60;;;3.38;;
7263;SDS011;3673;52.480;13.348;2023-07-02T09:05:48;4.75;;;3.35;;
7263;SDS011;3673;52.480;13.348;2023-07-02T09:08:22;9.93;;;3.85;;
7263;SDS011;3673;52.480;13.348;2023-07-02T09:10:50;5.53;;;3.70;;
7263;SDS011;3673;52.480;13.348;2023-07-02T09:13:17;7.68;;;4.30;;
7263;SDS011;3673;52.480;13.348;2023-07-02T09:15:43;4.85;;;3.75;;
7263;SDS011;3673;52.480;13.348;2023-07-02T09:18:17;6.30;;;3.50;;
7263;SDS011;3673;52.480;13.348;2023-07-02T09:20:44;5.88;;;3.55;;
7263;SDS011;3673;52.480;13.348;2023-07-02T09:23:13;5.68;;;3.80;;
7263;SDS011;3673;52.480;13.348;2023-07-02T09:25:40;7.68;;;4.15;;
7263;SDS011;3673;52.480;13.348;2023-07-02T09:28:15;6.80;;;3.70;;
7263;SDS011;3673;52.480;13.348;2023-07-02T09:30:51;7.82;;;4.20;;
7263;SDS011;3673;52.480;13.348;2023-07-02T09:33:19;5.63;;;3.95;;
7263;SDS011;3673;52.480;13.348;2023-07-02T09:35:46;6.68;;;4.30;;
7263;SDS011;3673;52.480;13.348;2023-07-02T09:38:14;7.45;;;4.25;;
7263;SDS011;3673;52.480;13.348;2023-07-02T09:40:44;7.88;;;5.38;;
7263;SDS011;3673;52.480;13.348;2023-07-02T09:43:13;8.15;;;4.43;;
7263;SDS011;3673;52.480;13.348;2023-07-02T09:45:42;10.43;;;5.45;;
7263;SDS011;3673;52.480;13.348;2023-07-02T09:48:12;9.93;;;4.28;;
7263;SDS011;3673;52.480;13.348;2023-07-02T09:50:41;9.00;;;5.13;;
7263;SDS011;3673;52.480;13.348;2023-07-02T09:53:09;10.40;;;4.85;;
7263;SDS011;3673;52.480;13.348;2023-07-02T09:55:38;7.75;;;4.80;;
7263;SDS011;3673;52.480;13.348;2023-07-02T09:58:08;14.15;;;5.10;;
7263;SDS011;3673;52.480;13.348;2023-07-02T10:00:35;10.27;;;5.07;;
7263;SDS011;3673;52.480;13.348;2023-07-02T10:03:02;8.82;;;5.22;;
7263;SDS011;3673;52.480;13.348;2023-07-02T10:05:29;11.68;;;4.93;;
7263;SDS011;3673;52.480;13.348;2023-07-02T10:07:58;10.18;;;5.53;;
7263;SDS011;3673;52.480;13.348;2023-07-02T10:10:39;11.85;;;5.43;;
7263;SDS011;3673;52.480;13.348;2023-07-02T10:13:06;10.13;;;4.65;;
7263;SDS011;3673;52.480;13.348;2023-07-02T10:15:33;9.85;;;5.80;;
7263;SDS011;3673;52.480;13.348;2023-07-02T10:18:03;7.93;;;5.32;;
7263;SDS011;3673;52.480;13.348;2023-07-02T10:20:32;10.77;;;5.50;;
7263;SDS011;3673;52.480;13.348;2023-07-02T10:23:01;9.82;;;5.40;;
7263;SDS011;3673;52.480;13.348;2023-07-02T10:25:29;11.10;;;6.28;;
7263;SDS011;3673;52.480;13.348;2023-07-02T10:28:00;7.57;;;5.13;;
7263;SDS011;3673;52.480;13.348;2023-07-02T10:30:31;13.18;;;5.70;;
7263;SDS011;3673;52.480;13.348;2023-07-02T10:33:08;9.20;;;4.82;;
7263;SDS011;3673;52.480;13.348;2023-07-02T10:35:37;13.63;;;5.47;;
7263;SDS011;3673;52.480;13.348;2023-07-02T10:38:06;10.77;;;5.50;;
7263;SDS011;3673;52.480;13.348;2023-07-02T10:40:33;14.32;;;5.75;;
7263;SDS011;3673;52.480;13.348;2023-07-02T10:43:01;9.32;;;5.45;;
7263;SDS011;3673;52.480;13.348;2023-07-02T10:45:31;10.13;;;5.72;;
7263;SDS011;3673;52.480;13.348;2023-07-02T10:48:01;15.60;;;5.85;;
7263;SDS011;3673;52.480;13.348;2023-07-02T10:50:29;10.55;;;5.53;;
7263;SDS011;3673;52.480;13.348;2023-07-02T10:52:57;10.35;;;5.78;;
7263;SDS011;3673;52.480;13.348;2023-07-02T10:55:24;13.07;;;5.90;;
7263;SDS011;3673;52.480;13.348;2023-07-02T10:58:03;16.20;;;6.50;;
7263;SDS011;3673;52.480;13.348;2023-07-02T11:00:31;15.05;;;5.60;;
7263;SDS011;3673;52.480;13.348;2023-07-02T11:02:58;12.00;;;5.78;;
7263;SDS011;3673;52.480;13.348;2023-07-02T11:05:25;12.55;;;5.65;;
7263;SDS011;3673;52.480;13.348;2023-07-02T11:07:52;11.20;;;6.25;;
7263;SDS011;3673;52.480;13.348;2023-07-02T11:10:22;9.27;;;5.47;;
7263;SDS011;3673;52.480;13.348;2023-07-02T11:12:49;10.55;;;5.68;;
7263;SDS011;3673;52.480;13.348;2023-07-02T11:15:18;16.17;;;6.10;;
7263;SDS011;3673;52.480;13.348;2023-07-02T11:17:45;14.77;;;6.28;;
7263;SDS011;3673;52.480;13.348;2023-07-02T11:20:12;15.88;;;6.97;;
7263;SDS011;3673;52.480;13.348;2023-07-02T11:22:40;13.15;;;6.13;;
7263;SDS011;3673;52.480;13.348;2023-07-02T11:25:13;14.40;;;6.35;;
7263;SDS011;3673;52.480;13.348;2023-07-02T11:27:43;11.80;;;6.53;;
7263;SDS011;3673;52.480;13.348;2023-07-02T11:30:11;16.42;;;6.22;;
7263;SDS011;3673;52.480;13.348;2023-07-02T11:32:50;9.35;;;6.00;;
7263;SDS011;3673;52.480;13.348;2023-07-02T11:35:19;21.63;;;6.10;;
7263;SDS011;3673;52.480;13.348;2023-07-02T11:37:47;16.83;;;8.50;;
7263;SDS011;3673;52.480;13.348;2023-07-02T11:40:14;13.05;;;5.90;;
7263;SDS011;3673;52.480;13.348;2023-07-02T11:42:44;14.20;;;6.35;;
7263;SDS011;3673;52.480;13.348;2023-07-02T11:45:10;16.17;;;7.10;;
7263;SDS011;3673;52.480;13.348;2023-07-02T11:47:37;12.93;;;6.63;;
7263;SDS011;3673;52.480;13.348;2023-07-02T11:50:06;15.45;;;6.55;;
7263;SDS011;3673;52.480;13.348;2023-07-02T11:52:34;13.23;;;6.38;;
7263;SDS011;3673;52.480;13.348;2023-07-02T11:55:01;14.77;;;6.60;;
7263;SDS011;3673;52.480;13.348;2023-07-02T11:57:28;14.93;;;6.63;;
7263;SDS011;3673;52.480;13.348;2023-07-02T11:59:55;10.75;;;6.35;;
7263;SDS011;3673;52.480;13.348;2023-07-02T12:02:21;14.00;;;6.70;;
7263;SDS011;3673;52.480;13.348;2023-07-02T12:04:48;10.80;;;6.47;;
7263;SDS011;3673;52.480;13.348;2023-07-02T12:07:16;10.68;;;6.85;;
7263;SDS011;3673;52.480;13.348;2023-07-02T12:09:43;12.60;;;6.80;;
7263;SDS011;3673;52.480;13.348;2023-07-02T12:12:10;13.10;;;6.50;;
7263;SDS011;3673;52.480;13.348;2023-07-02T12:14:37;15.52;;;6.80;;
7263;SDS011;3673;52.480;13.348;2023-07-02T12:17:06;14.40;;;6.07;;
7263;SDS011;3673;52.480;13.348;2023-07-02T12:19:33;11.65;;;5.70;;
7263;SDS011;3673;52.480;13.348;2023-07-02T12:22:03;14.25;;;6.70;;
7263;SDS011;3673;52.480;13.348;2023-07-02T12:24:31;16.73;;;6.80;;
7263;SDS011;3673;52.480;13.348;2023-07-02T12:26:58;15.10;;;6.85;;
7263;SDS011;3673;52.480;13.348;2023-07-02T12:29:25;10.35;;;6.78;;
7263;SDS011;3673;52.480;13.348;2023-07-02T12:31:51;13.95;;;6.35;;
7263;SDS011;3673;52.480;13.348;2023-07-02T12:34:18;15.50;;;6.38;;
7263;SDS011;3673;52.480;13.348;2023-07-02T12:36:45;15.45;;;6.78;;
7263;SDS011;3673;52.480;13.348;2023-07-02T12:39:12;15.50;;;5.78;;
7263;SDS011;3673;52.480;13.348;2023-07-02T12:41:40;11.93;;;6.68;;
7263;SDS011;3673;52.480;13.348;2023-07-02T12:44:07;16.10;;;7.47;;
7263;SDS011;3673;52.480;13.348;2023-07-02T12:46:34;11.75;;;6.90;;
7263;SDS011;3673;52.480;13.348;2023-07-02T12:49:00;11.00;;;6.55;;
7263;SDS011;3673;52.480;13.348;2023-07-02T12:51:27;11.88;;;6.68;;
7263;SDS011;3673;52.480;13.348;2023-07-02T12:53:54;15.05;;;7.20;;
7263;SDS011;3673;52.480;13.348;2023-07-02T12:56:21;10.35;;;6.72;;
7263;SDS011;3673;52.480;13.348;2023-07-02T12:58:49;11.50;;;6.35;;
7263;SDS011;3673;52.480;13.348;2023-07-02T13:01:16;14.57;;;6.82;;
7263;SDS011;3673;52.480;13.348;2023-07-02T13:03:44;13.38;;;6.75;;
7263;SDS011;3673;52.480;13.348;2023-07-02T13:06:12;16.00;;;6.30;;
7263;SDS011;3673;52.480;13.348;2023-07-02T13:08:39;13.63;;;6.57;;
7263;SDS011;3673;52.480;13.348;2023-07-02T13:11:06;16.45;;;7.18;;
7263;SDS011;3673;52.480;13.348;2023-07-02T13:13:33;11.52;;;6.97;;
7263;SDS011;3673;52.480;13.348;2023-07-02T13:16:03;12.77;;;6.25;;
7263;SDS011;3673;52.480;13.348;2023-07-02T13:18:30;11.88;;;6.53;;
7263;SDS011;3673;52.480;13.348;2023-07-02T13:20:57;14.15;;;7.80;;
7263;SDS011;3673;52.480;13.348;2023-07-02T13:23:24;10.32;;;6.50;;
7263;SDS011;3673;52.480;13.348;2023-07-02T13:25:50;14.15;;;6.78;;
7263;SDS011;3673;52.480;13.348;2023-07-02T13:28:17;13.27;;;7.18;;
7263;SDS011;3673;52.480;13.348;2023-07-02T13:30:46;12.75;;;6.68;;
7263;SDS011;3673;52.480;13.348;2023-07-02T13:33:14;16.50;;;7.97;;
7263;SDS011;3673;52.480;13.348;2023-07-02T13:35:41;11.98;;;6.78;;
7263;SDS011;3673;52.480;13.348;2023-07-02T13:38:08;10.52;;;6.75;;
7263;SDS011;3673;52.480;13.348;2023-07-02T13:40:35;10.82;;;6.70;;
7263;SDS011;3673;52.480;13.348;2023-07-02T13:43:02;12.90;;;7.32;;
7263;SDS011;3673;52.480;13.348;2023-07-02T13:45:29;15.32;;;6.78;;
7263;SDS011;3673;52.480;13.348;2023-07-02T13:47:55;12.90;;;6.60;;
7263;SDS011;3673;52.480;13.348;2023-07-02T13:50:24;12.00;;;6.47;;
7263;SDS011;3673;52.480;13.348;2023-07-02T13:52:50;12.57;;;6.75;;
7263;SDS011;3673;52.480;13.348;2023-07-02T13:55:17;9.80;;;6.68;;
7263;SDS011;3673;52.480;13.348;2023-07-02T13:57:45;13.88;;;6.57;;
7263;SDS011;3673;52.480;13.348;2023-07-02T14:00:14;13.75;;;6.68;;
7263;SDS011;3673;52.480;13.348;2023-07-02T14:02:41;13.38;;;6.28;;
7263;SDS011;3673;52.480;13.348;2023-07-02T14:05:08;13.55;;;7.35;;
7263;SDS011;3673;52.480;13.348;2023-07-02T14:07:35;10.48;;;6.43;;
7263;SDS011;3673;52.480;13.348;2023-07-02T14:10:02;13.70;;;7.13;;
7263;SDS011;3673;52.480;13.348;2023-07-02T14:12:29;11.90;;;5.80;;
7263;SDS011;3673;52.480;13.348;2023-07-02T14:14:56;15.00;;;6.78;;
7263;SDS011;3673;52.480;13.348;2023-07-02T14:17:25;13.15;;;6.70;;
7263;SDS011;3673;52.480;13.348;2023-07-02T14:19:51;11.80;;;5.95;;
7263;SDS011;3673;52.480;13.348;2023-07-02T14:22:18;10.73;;;6.00;;
7263;SDS011;3673;52.480;13.348;2023-07-02T14:24:45;10.93;;;6.50;;
7263;SDS011;3673;52.480;13.348;2023-07-02T14:27:11;16.13;;;6.80;;
7263;SDS011;3673;52.480;13.348;2023-07-02T14:29:38;13.25;;;6.30;;
7263;SDS011;3673;52.480;13.348;2023-07-02T14:32:05;13.23;;;6.43;;
7263;SDS011;3673;52.480;13.348;2023-07-02T14:34:34;13.90;;;6.82;;
7263;SDS011;3673;52.480;13.348;2023-07-02T14:37:02;11.40;;;6.05;;
7263;SDS011;3673;52.480;13.348;2023-07-02T14:39:29;10.02;;;6.20;;
7263;SDS011;3673;52.480;13.348;2023-07-02T14:41:56;16.17;;;5.95;;
7263;SDS011;3673;52.480;13.348;2023-07-02T14:44:23;11.70;;;6.05;;
7263;SDS011;3673;52.480;13.348;2023-07-02T14:46:50;9.10;;;5.28;;
7263;SDS011;3673;52.480;13.348;2023-07-02T14:49:17;11.45;;;6.28;;
7263;SDS011;3673;52.480;13.348;2023-07-02T14:51:48;13.18;;;6.55;;
7263;SDS011;3673;52.480;13.348;2023-07-02T14:54:14;13.98;;;5.40;;
7263;SDS011;3673;52.480;13.348;2023-07-02T14:56:41;11.77;;;6.80;;
7263;SDS011;3673;52.480;13.348;2023-07-02T14:59:08;9.73;;;6.07;;
7263;SDS011;3673;52.480;13.348;2023-07-02T15:01:35;11.65;;;6.07;;